createdAt,value
2018-08-31T00:02:14.318Z,13.10
2018-08-31T00:05:02.392Z,13.10
2018-08-31T00:07:57.195Z,13.10
2018-08-31T00:12:41.071Z,13.10
2018-08-31T00:15:10.843Z,13.20
2018-08-31T00:17:41.369Z,13.20
2018-08-31T00:20:12.081Z,13.20
2018-08-31T00:22:41.657Z,13.20
2018-08-31T00:26:28.676Z,13.30
2018-08-31T00:29:44.894Z,13.30
2018-08-31T00:33:11.977Z,13.40
2018-08-31T00:36:14.362Z,13.50
2018-08-31T00:39:00.378Z,13.50
2018-08-31T00:43:52.499Z,13.50
2018-08-31T00:46:22.956Z,13.60
2018-08-31T00:48:52.384Z,13.60
2018-08-31T00:51:21.838Z,13.70
2018-08-31T00:53:51.625Z,13.70
2018-08-31T00:56:21.856Z,13.70
2018-08-31T00:58:51.657Z,13.70
2018-08-31T01:01:21.466Z,13.70
2018-08-31T01:03:51.283Z,13.70
2018-08-31T01:06:21.069Z,13.70
2018-08-31T01:08:50.791Z,13.80
2018-08-31T01:11:20.449Z,13.80
2018-08-31T01:13:50.149Z,13.80
2018-08-31T01:16:19.601Z,13.80
2018-08-31T01:18:49.511Z,13.80
2018-08-31T01:21:19.306Z,13.80
2018-08-31T01:23:49.094Z,13.80
2018-08-31T01:26:18.902Z,13.80
2018-08-31T01:28:48.704Z,13.80
2018-08-31T01:31:18.530Z,13.80
2018-08-31T01:33:48.389Z,13.80
2018-08-31T01:36:18.203Z,13.80
2018-08-31T01:38:47.990Z,13.80
2018-08-31T01:41:17.788Z,13.80
2018-08-31T01:43:47.713Z,13.90
2018-08-31T01:46:17.503Z,13.90
2018-08-31T01:48:47.357Z,13.90
2018-08-31T01:51:20.910Z,13.90
2018-08-31T01:53:50.811Z,13.90
2018-08-31T01:56:20.566Z,13.90
2018-08-31T01:58:50.113Z,14.00
2018-08-31T02:01:19.543Z,14.00
2018-08-31T02:03:49.054Z,14.00
2018-08-31T02:06:18.900Z,14.10
2018-08-31T02:08:53.746Z,14.10
2018-08-31T02:11:23.508Z,14.10
2018-08-31T02:13:53.289Z,14.20
2018-08-31T02:16:23.124Z,14.20
2018-08-31T02:18:52.906Z,14.20
2018-08-31T02:21:22.719Z,14.20
2018-08-31T02:23:52.530Z,14.20
2018-08-31T02:26:22.368Z,14.30
2018-08-31T02:28:52.151Z,14.30
2018-08-31T02:31:22.014Z,14.20
2018-08-31T02:33:52.130Z,14.20
2018-08-31T02:36:21.917Z,14.20
2018-08-31T02:38:52.022Z,14.20
2018-08-31T02:41:22.259Z,14.20
2018-08-31T02:43:52.423Z,14.20
2018-08-31T02:46:23.085Z,14.20
2018-08-31T02:48:53.391Z,14.20
2018-08-31T02:51:23.191Z,14.20
2018-08-31T02:53:52.998Z,14.20
2018-08-31T02:56:22.795Z,14.20
2018-08-31T02:58:52.612Z,14.20
2018-08-31T03:01:22.434Z,14.10
2018-08-31T03:03:52.292Z,14.10
2018-08-31T03:06:22.121Z,14.10
2018-08-31T03:08:51.978Z,14.10
2018-08-31T03:11:21.902Z,14.10
2018-08-31T03:13:51.678Z,14.10
2018-08-31T03:16:21.527Z,14.10
2018-08-31T03:18:51.273Z,14.00
2018-08-31T03:21:21.212Z,14.00
2018-08-31T03:23:50.888Z,14.00
2018-08-31T03:26:20.722Z,14.00
2018-08-31T03:28:50.536Z,14.00
2018-08-31T03:31:20.331Z,14.00
2018-08-31T03:33:50.184Z,14.00
2018-08-31T03:36:19.930Z,13.90
2018-08-31T03:38:49.763Z,13.90
2018-08-31T03:41:19.590Z,13.90
2018-08-31T03:43:49.400Z,13.90
2018-08-31T03:46:19.210Z,13.90
2018-08-31T03:48:49.030Z,13.90
2018-08-31T03:51:18.898Z,13.90
2018-08-31T03:53:48.727Z,13.90
2018-08-31T03:56:18.554Z,13.90
2018-08-31T03:58:48.327Z,13.90
2018-08-31T04:01:18.185Z,13.90
2018-08-31T04:03:47.982Z,13.90
2018-08-31T04:06:17.774Z,13.90
2018-08-31T04:08:47.512Z,13.90
2018-08-31T04:11:17.269Z,13.90
2018-08-31T04:13:47.062Z,13.90
2018-08-31T04:16:16.799Z,13.90
2018-08-31T04:18:46.681Z,13.90
2018-08-31T04:21:16.481Z,13.90
2018-08-31T04:23:46.033Z,13.90
2018-08-31T04:26:15.469Z,13.90
2018-08-31T04:28:44.934Z,13.90
2018-08-31T04:31:14.383Z,13.90
2018-08-31T04:33:43.831Z,13.90
2018-08-31T04:36:13.230Z,13.90
2018-08-31T04:38:42.687Z,13.90
2018-08-31T04:41:12.178Z,13.90
2018-08-31T04:43:41.626Z,13.90
2018-08-31T04:46:11.289Z,13.90
2018-08-31T04:48:40.822Z,13.90
2018-08-31T04:51:10.233Z,13.90
2018-08-31T04:53:39.675Z,13.90
2018-08-31T04:56:09.128Z,14.00
2018-08-31T04:58:38.613Z,14.00
2018-08-31T05:01:08.357Z,14.00
2018-08-31T05:03:38.298Z,14.00
2018-08-31T05:06:08.117Z,14.00
2018-08-31T05:08:37.938Z,14.00
2018-08-31T05:11:07.738Z,14.00
2018-08-31T05:13:37.575Z,14.00
2018-08-31T05:16:07.471Z,14.10
2018-08-31T05:18:37.170Z,14.10
2018-08-31T05:21:07.029Z,14.10
2018-08-31T05:23:36.885Z,14.10
2018-08-31T05:26:06.691Z,14.20
2018-08-31T05:28:36.481Z,14.20
2018-08-31T05:31:06.553Z,14.20
2018-08-31T05:33:36.418Z,14.30
2018-08-31T05:36:06.220Z,14.40
2018-08-31T05:38:36.007Z,14.40
2018-08-31T05:41:05.917Z,14.50
2018-08-31T05:43:35.722Z,14.50
2018-08-31T05:46:05.628Z,14.60
2018-08-31T05:48:35.491Z,14.60
2018-08-31T05:51:05.326Z,14.70
2018-08-31T05:53:35.075Z,14.70
2018-08-31T05:56:04.383Z,14.80
2018-08-31T05:58:33.798Z,14.90
2018-08-31T06:01:03.215Z,14.90
2018-08-31T06:03:32.609Z,15.00
2018-08-31T06:06:02.029Z,15.10
2018-08-31T06:08:31.450Z,15.20
2018-08-31T06:11:00.860Z,15.20
2018-08-31T06:13:30.268Z,15.30
2018-08-31T06:15:59.735Z,15.40
2018-08-31T06:18:29.218Z,15.50
2018-08-31T06:20:58.794Z,15.50
2018-08-31T06:23:28.279Z,15.60
2018-08-31T06:25:58.074Z,15.70
2018-08-31T06:28:27.603Z,15.80
2018-08-31T06:30:57.055Z,15.90
2018-08-31T06:33:26.487Z,15.90
2018-08-31T06:35:55.881Z,16.00
2018-08-31T06:38:25.281Z,16.10
2018-08-31T06:40:54.776Z,16.10
2018-08-31T06:43:24.095Z,16.20
2018-08-31T06:45:53.502Z,16.30
2018-08-31T06:48:22.918Z,16.30
2018-08-31T06:50:52.347Z,16.40
2018-08-31T06:53:21.798Z,16.50
2018-08-31T06:55:51.208Z,16.50
2018-08-31T06:58:20.763Z,16.60
2018-08-31T07:00:50.207Z,16.60
2018-08-31T07:03:19.612Z,16.70
2018-08-31T07:05:49.020Z,16.80
2018-08-31T07:08:18.404Z,16.80
2018-08-31T07:10:47.832Z,16.90
2018-08-31T07:13:17.295Z,16.90
2018-08-31T07:15:46.794Z,17.00
2018-08-31T07:18:16.202Z,17.10
2018-08-31T07:20:45.585Z,17.10
2018-08-31T07:23:15.003Z,17.20
2018-08-31T07:25:44.439Z,17.20
2018-08-31T07:28:14.281Z,17.30
2018-08-31T07:30:44.104Z,17.30
2018-08-31T07:33:14.002Z,17.40
2018-08-31T07:35:43.876Z,17.40
2018-08-31T07:38:13.669Z,17.50
2018-08-31T07:40:43.512Z,17.60
2018-08-31T07:43:13.308Z,17.60
2018-08-31T07:45:44.458Z,17.70
2018-08-31T07:48:14.282Z,17.80
2018-08-31T07:50:43.994Z,17.80
2018-08-31T07:53:13.879Z,17.90
2018-08-31T07:55:44.280Z,18.00
2018-08-31T07:58:14.145Z,18.10
2018-08-31T08:00:43.961Z,18.10
2018-08-31T08:03:13.976Z,18.20
2018-08-31T08:05:44.320Z,18.20
2018-08-31T08:08:14.223Z,18.30
2018-08-31T08:10:44.018Z,18.40
2018-08-31T08:13:13.943Z,18.50
2018-08-31T08:15:43.803Z,18.50
2018-08-31T08:18:13.741Z,18.60
2018-08-31T08:20:43.579Z,18.60
2018-08-31T08:23:13.494Z,18.70
2018-08-31T08:25:43.423Z,18.70
2018-08-31T08:28:13.831Z,18.70
2018-08-31T08:30:43.691Z,18.80
2018-08-31T08:33:13.615Z,18.80
2018-08-31T08:35:43.477Z,18.90
2018-08-31T08:38:13.093Z,19.00
2018-08-31T08:40:42.590Z,19.10
2018-08-31T08:43:12.031Z,19.20
2018-08-31T08:45:43.062Z,19.30
2018-08-31T08:48:12.538Z,19.40
2018-08-31T08:50:41.982Z,19.60
2018-08-31T08:53:11.405Z,19.70
2018-08-31T08:55:40.862Z,19.80
2018-08-31T08:58:11.544Z,19.90
2018-08-31T09:00:41.559Z,20.00
2018-08-31T09:03:11.003Z,20.10
2018-08-31T09:05:41.418Z,20.20
2018-08-31T09:08:10.810Z,20.20
2018-08-31T09:10:40.623Z,20.30
2018-08-31T09:13:10.349Z,20.40
2018-08-31T09:15:40.096Z,20.50
2018-08-31T09:18:10.022Z,20.50
2018-08-31T09:20:39.880Z,20.60
2018-08-31T09:23:09.647Z,20.60
2018-08-31T09:25:39.426Z,20.60
2018-08-31T09:28:09.186Z,20.60
2018-08-31T09:30:42.510Z,20.70
2018-08-31T09:33:12.277Z,20.70
2018-08-31T09:35:42.047Z,20.60
2018-08-31T09:38:13.084Z,20.60
2018-08-31T09:40:42.911Z,20.60
2018-08-31T09:43:12.644Z,20.60
2018-08-31T09:45:42.388Z,20.50
2018-08-31T09:48:12.102Z,20.50
2018-08-31T09:50:41.883Z,20.50
2018-08-31T09:53:11.717Z,20.50
2018-08-31T09:55:41.427Z,20.50
2018-08-31T09:58:11.228Z,20.50
2018-08-31T10:00:46.049Z,20.50
2018-08-31T10:03:20.914Z,20.50
2018-08-31T10:05:50.975Z,20.50
2018-08-31T10:08:21.085Z,20.50
2018-08-31T10:10:50.899Z,20.60
2018-08-31T10:13:20.491Z,20.60
2018-08-31T10:15:49.927Z,20.70
2018-08-31T10:18:19.341Z,20.70
2018-08-31T10:20:48.800Z,20.80
2018-08-31T10:23:18.210Z,20.90
2018-08-31T10:25:47.652Z,21.00
2018-08-31T10:28:17.037Z,21.00
2018-08-31T10:30:46.489Z,21.10
2018-08-31T10:33:15.910Z,21.20
2018-08-31T10:35:45.366Z,21.30
2018-08-31T10:38:14.813Z,21.40
2018-08-31T10:40:44.266Z,21.60
2018-08-31T10:43:14.077Z,21.70
2018-08-31T10:45:43.890Z,21.80
2018-08-31T10:48:13.578Z,21.90
2018-08-31T10:50:43.329Z,22.10
2018-08-31T10:53:13.115Z,22.10
2018-08-31T10:55:42.881Z,22.20
2018-08-31T10:58:12.636Z,22.20
2018-08-31T11:00:42.445Z,22.30
2018-08-31T11:03:12.295Z,22.30
2018-08-31T11:05:42.062Z,22.20
2018-08-31T11:08:11.902Z,22.20
2018-08-31T11:10:41.491Z,22.10
2018-08-31T11:13:10.959Z,22.00
2018-08-31T11:15:40.834Z,21.90
2018-08-31T11:18:10.640Z,21.90
2018-08-31T11:20:40.251Z,21.90
2018-08-31T11:23:09.759Z,21.90
2018-08-31T11:25:39.258Z,21.90
2018-08-31T11:28:08.885Z,22.00
2018-08-31T11:30:38.357Z,22.10
2018-08-31T11:33:07.911Z,22.10
2018-08-31T11:35:37.386Z,22.20
2018-08-31T11:38:06.922Z,22.20
2018-08-31T11:40:36.787Z,22.10
2018-08-31T11:43:06.767Z,22.10
2018-08-31T11:45:36.510Z,22.10
2018-08-31T11:48:06.271Z,22.00
2018-08-31T11:50:36.063Z,21.90
2018-08-31T11:53:06.116Z,21.90
2018-08-31T11:55:36.056Z,21.90
2018-08-31T11:58:05.798Z,21.90
2018-08-31T12:00:35.621Z,22.10
2018-08-31T12:03:05.470Z,22.20
2018-08-31T12:05:35.272Z,22.40
2018-08-31T12:08:05.451Z,22.50
2018-08-31T12:10:35.290Z,22.70
2018-08-31T12:13:05.046Z,22.70
2018-08-31T12:15:34.873Z,22.80
2018-08-31T12:18:04.507Z,22.70
2018-08-31T12:20:33.994Z,22.70
2018-08-31T12:23:03.530Z,22.60
2018-08-31T12:25:32.955Z,22.50
2018-08-31T12:28:02.412Z,22.40
2018-08-31T12:30:32.022Z,22.30
2018-08-31T12:33:01.775Z,22.20
2018-08-31T12:35:31.266Z,22.10
2018-08-31T12:38:00.729Z,22.10
2018-08-31T12:40:30.247Z,22.00
2018-08-31T12:43:00.516Z,22.00
2018-08-31T12:45:34.737Z,22.00
2018-08-31T12:48:04.223Z,21.90
2018-08-31T12:50:33.762Z,22.00
2018-08-31T12:53:03.203Z,22.00
2018-08-31T12:55:32.678Z,22.10
2018-08-31T12:58:02.509Z,22.10
2018-08-31T13:00:32.251Z,22.20
2018-08-31T13:03:02.059Z,22.30
2018-08-31T13:05:31.909Z,22.40
2018-08-31T13:08:01.696Z,22.50
2018-08-31T13:10:31.543Z,22.60
2018-08-31T13:13:01.411Z,22.70
2018-08-31T13:15:31.218Z,22.70
2018-08-31T13:18:00.997Z,22.80
2018-08-31T13:20:30.913Z,22.80
2018-08-31T13:23:00.711Z,22.90
2018-08-31T13:25:30.530Z,22.90
2018-08-31T13:28:00.325Z,23.00
2018-08-31T13:30:30.146Z,23.00
2018-08-31T13:32:59.921Z,23.10
2018-08-31T13:35:29.728Z,23.10
2018-08-31T13:37:59.506Z,23.10
2018-08-31T13:40:29.263Z,23.10
2018-08-31T13:42:59.054Z,23.10
2018-08-31T13:45:28.818Z,23.20
2018-08-31T13:47:58.656Z,23.20
2018-08-31T13:50:28.457Z,23.20
2018-08-31T13:52:58.419Z,23.20
2018-08-31T13:55:28.283Z,23.30
2018-08-31T13:57:58.133Z,23.30
2018-08-31T14:00:27.914Z,23.30
2018-08-31T14:02:57.714Z,23.30
2018-08-31T14:05:27.479Z,23.20
2018-08-31T14:07:57.237Z,23.20
2018-08-31T14:10:27.115Z,23.20
2018-08-31T14:12:56.879Z,23.20
2018-08-31T14:15:26.771Z,23.20
2018-08-31T14:17:56.640Z,23.20
2018-08-31T14:20:26.503Z,23.20
2018-08-31T14:22:56.107Z,23.20
2018-08-31T14:25:25.589Z,23.20
2018-08-31T14:27:55.058Z,23.20
2018-08-31T14:30:24.606Z,23.10
2018-08-31T14:32:54.401Z,23.10
2018-08-31T14:35:24.605Z,23.10
2018-08-31T14:37:54.476Z,23.10
2018-08-31T14:40:24.242Z,23.10
2018-08-31T14:42:53.997Z,23.10
2018-08-31T14:45:23.806Z,23.10
2018-08-31T14:47:53.494Z,23.10
2018-08-31T14:50:22.977Z,23.10
2018-08-31T14:52:52.464Z,23.10
2018-08-31T14:55:21.954Z,23.10
2018-08-31T14:57:51.458Z,23.10
2018-08-31T15:00:20.910Z,23.10
2018-08-31T15:02:50.620Z,23.10
2018-08-31T15:05:20.418Z,23.10
2018-08-31T15:07:50.227Z,23.10
2018-08-31T15:10:20.014Z,23.00
2018-08-31T15:12:49.863Z,23.00
2018-08-31T15:15:19.604Z,23.00
2018-08-31T15:17:49.424Z,22.90
2018-08-31T15:20:19.256Z,22.90
2018-08-31T15:22:49.073Z,22.80
2018-08-31T15:25:18.932Z,22.80
2018-08-31T15:27:48.648Z,22.80
2018-08-31T15:30:18.451Z,22.70
2018-08-31T15:32:48.299Z,22.70
2018-08-31T15:35:18.110Z,22.60
2018-08-31T15:37:47.934Z,22.60
2018-08-31T15:40:17.763Z,22.50
2018-08-31T15:42:47.838Z,22.50
2018-08-31T15:45:17.550Z,22.40
2018-08-31T15:47:47.342Z,22.40
2018-08-31T15:50:17.062Z,22.30
2018-08-31T15:52:46.952Z,22.20
2018-08-31T15:55:16.706Z,22.20
2018-08-31T15:57:46.574Z,22.10
2018-08-31T16:00:16.347Z,22.10
2018-08-31T16:02:46.338Z,22.00
2018-08-31T16:05:16.030Z,22.00
2018-08-31T16:07:45.819Z,21.90
2018-08-31T16:10:15.653Z,21.90
2018-08-31T16:12:45.441Z,21.80
2018-08-31T16:15:15.331Z,21.80
2018-08-31T16:17:45.096Z,21.70
2018-08-31T16:20:14.870Z,21.60
2018-08-31T16:22:44.680Z,21.60
2018-08-31T16:25:14.496Z,21.60
2018-08-31T16:27:44.348Z,21.50
2018-08-31T16:30:14.161Z,21.50
2018-08-31T16:32:43.938Z,21.40
2018-08-31T16:35:13.693Z,21.40
2018-08-31T16:37:43.483Z,21.40
2018-08-31T16:40:13.253Z,21.30
2018-08-31T16:42:43.142Z,21.30
2018-08-31T16:45:12.682Z,21.20
2018-08-31T16:47:42.094Z,21.20
2018-08-31T16:50:11.957Z,21.20
2018-08-31T16:52:41.759Z,21.20
2018-08-31T16:55:11.540Z,21.10
2018-08-31T16:57:41.440Z,21.10
2018-08-31T17:00:11.400Z,21.10
2018-08-31T17:02:41.086Z,21.10
2018-08-31T17:05:10.956Z,21.00
2018-08-31T17:07:40.752Z,21.00
2018-08-31T17:10:10.558Z,21.00
2018-08-31T17:12:40.344Z,21.00
2018-08-31T17:15:10.215Z,21.00
2018-08-31T17:17:40.029Z,20.90
2018-08-31T17:20:09.727Z,20.90
2018-08-31T17:22:39.268Z,20.80
2018-08-31T17:25:09.070Z,20.80
2018-08-31T17:27:43.618Z,20.70
2018-08-31T17:30:18.196Z,20.70
2018-08-31T17:32:52.716Z,20.60
2018-08-31T17:35:27.314Z,20.50
2018-08-31T17:37:59.249Z,20.50
2018-08-31T17:40:29.144Z,20.40
2018-08-31T17:42:59.302Z,20.40
2018-08-31T17:45:28.791Z,20.30
2018-08-31T17:47:58.278Z,20.20
2018-08-31T17:50:27.814Z,20.10
2018-08-31T17:52:57.380Z,20.00
2018-08-31T17:55:26.884Z,19.90
2018-08-31T17:57:56.410Z,19.80
2018-08-31T18:00:25.903Z,19.70
2018-08-31T18:02:55.409Z,19.60
2018-08-31T18:05:24.851Z,19.50
2018-08-31T18:07:55.666Z,19.30
2018-08-31T18:10:25.158Z,19.20
2018-08-31T18:12:54.628Z,19.10
2018-08-31T18:15:24.104Z,19.00
2018-08-31T18:17:53.552Z,18.90
2018-08-31T18:20:23.118Z,18.70
2018-08-31T18:22:52.570Z,18.60
2018-08-31T18:25:22.080Z,18.40
2018-08-31T18:27:51.517Z,18.30
2018-08-31T18:30:20.948Z,18.10
2018-08-31T18:32:50.512Z,18.00
2018-08-31T18:35:19.996Z,17.90
2018-08-31T18:37:49.524Z,17.70
2018-08-31T18:40:19.021Z,17.60
2018-08-31T18:42:48.478Z,17.40
2018-08-31T18:45:18.188Z,17.30
2018-08-31T18:47:47.725Z,17.20
2018-08-31T18:50:17.187Z,17.00
2018-08-31T18:52:46.688Z,16.90
2018-08-31T18:55:16.174Z,16.80
2018-08-31T18:57:45.734Z,16.60
2018-08-31T19:00:15.223Z,16.50
2018-08-31T19:02:44.814Z,16.40
2018-08-31T19:05:14.787Z,16.30
2018-08-31T19:07:44.323Z,16.20
2018-08-31T19:10:13.865Z,16.10
2018-08-31T19:12:43.359Z,16.00
2018-08-31T19:15:12.890Z,15.90
2018-08-31T19:17:42.468Z,15.70
2018-08-31T19:20:12.130Z,15.70
2018-08-31T19:22:41.630Z,15.50
2018-08-31T19:25:11.291Z,15.40
2018-08-31T19:27:40.790Z,15.30
2018-08-31T19:30:10.291Z,15.20
2018-08-31T19:32:39.826Z,15.10
2018-08-31T19:35:09.410Z,15.00
2018-08-31T19:37:38.917Z,14.90
2018-08-31T19:40:08.525Z,14.90
2018-08-31T19:42:38.001Z,14.80
2018-08-31T19:45:08.305Z,14.70
2018-08-31T19:47:38.259Z,14.60
2018-08-31T19:50:08.070Z,14.60
2018-08-31T19:52:37.593Z,14.50
2018-08-31T19:55:07.156Z,14.50
2018-08-31T19:57:36.700Z,14.40
2018-08-31T20:00:07.130Z,14.40
2018-08-31T20:02:36.645Z,14.30
2018-08-31T20:05:06.286Z,14.30
2018-08-31T20:07:35.857Z,14.20
2018-08-31T20:10:05.441Z,14.20
2018-08-31T20:12:34.971Z,14.10
2018-08-31T20:15:04.505Z,14.10
2018-08-31T20:17:33.994Z,14.00
2018-08-31T20:20:03.829Z,13.90
2018-08-31T20:22:33.308Z,13.90
2018-08-31T20:25:02.780Z,13.80
2018-08-31T20:27:32.299Z,13.80
2018-08-31T20:30:01.863Z,13.70
2018-08-31T20:32:31.377Z,13.70
2018-08-31T20:35:00.914Z,13.60
2018-08-31T20:37:30.405Z,13.60
2018-08-31T20:39:59.890Z,13.50
2018-08-31T20:42:29.400Z,13.50
2018-08-31T20:44:58.898Z,13.50
2018-08-31T20:47:28.369Z,13.40
2018-08-31T20:49:57.812Z,13.40
2018-08-31T20:52:27.344Z,13.30
2018-08-31T20:54:56.804Z,13.30
2018-08-31T20:57:26.323Z,13.20
2018-08-31T20:59:56.277Z,13.20
2018-08-31T21:02:25.825Z,13.10
2018-08-31T21:04:55.564Z,13.10
2018-08-31T21:07:25.036Z,13.10
2018-08-31T21:09:54.521Z,13.00
2018-08-31T21:12:23.996Z,13.00
2018-08-31T21:14:53.444Z,13.00
2018-08-31T21:17:22.949Z,12.90
2018-08-31T21:19:52.438Z,12.90
2018-08-31T21:22:21.962Z,12.90
2018-08-31T21:24:51.438Z,12.90
2018-08-31T21:27:20.918Z,12.90
2018-08-31T21:29:50.395Z,12.80
2018-08-31T21:32:19.900Z,12.80
2018-08-31T21:34:49.363Z,12.80
2018-08-31T21:37:18.834Z,12.80
2018-08-31T21:39:48.323Z,12.80
2018-08-31T21:42:17.914Z,12.80
2018-08-31T21:44:47.561Z,12.80
2018-08-31T21:47:17.066Z,12.80
2018-08-31T21:49:46.567Z,12.80
2018-08-31T21:52:16.011Z,12.80
2018-08-31T21:54:45.554Z,12.80
2018-08-31T21:57:14.971Z,12.80
2018-08-31T21:59:44.438Z,12.80
2018-08-31T22:02:13.880Z,12.80
2018-08-31T22:04:43.349Z,12.80
2018-08-31T22:07:12.942Z,12.80
2018-08-31T22:09:42.431Z,12.80
2018-08-31T22:12:11.991Z,12.80
2018-08-31T22:14:41.467Z,12.80
2018-08-31T22:17:10.914Z,12.80
2018-08-31T22:19:40.361Z,12.80
2018-08-31T22:22:09.838Z,12.80
2018-08-31T22:24:39.338Z,12.80
2018-08-31T22:27:08.806Z,12.80
2018-08-31T22:29:38.644Z,12.80
2018-08-31T22:32:08.515Z,12.80
2018-08-31T22:34:38.313Z,12.80
2018-08-31T22:37:08.185Z,12.80
2018-08-31T22:39:37.979Z,12.80
2018-08-31T22:42:07.832Z,12.80
2018-08-31T22:44:37.619Z,12.90
2018-08-31T22:47:07.443Z,12.90
2018-08-31T22:49:37.250Z,12.90
2018-08-31T22:52:07.154Z,12.90
2018-08-31T22:54:36.999Z,12.90
2018-08-31T22:57:06.815Z,12.90
2018-08-31T22:59:36.726Z,13.00
2018-08-31T23:02:06.512Z,13.00
2018-08-31T23:04:36.282Z,13.00
2018-08-31T23:07:08.473Z,13.00
2018-08-31T23:09:38.307Z,13.10
2018-08-31T23:12:08.136Z,13.10
2018-08-31T23:14:37.928Z,13.10
2018-08-31T23:17:07.769Z,13.00
2018-08-31T23:19:37.624Z,13.00
2018-08-31T23:22:08.419Z,13.00
2018-08-31T23:24:38.217Z,13.00
2018-08-31T23:27:08.095Z,12.90
2018-08-31T23:29:37.914Z,12.90
2018-08-31T23:32:07.723Z,12.90
2018-08-31T23:34:37.558Z,12.90
2018-08-31T23:37:07.316Z,12.80
2018-08-31T23:39:37.108Z,12.80
2018-08-31T23:42:07.203Z,12.80
2018-08-31T23:44:37.034Z,12.70
2018-08-31T23:47:06.856Z,12.70
2018-08-31T23:49:36.616Z,12.60
2018-08-31T23:52:06.444Z,12.60
2018-08-31T23:54:36.217Z,12.60
2018-08-31T23:57:06.110Z,12.50
2018-08-31T23:59:35.905Z,12.50
